sensor_id;sensor_type;location;lat;lon;timestamp;P1;durP1;ratioP1;P2;durP2;ratioP2
23228;SDS011;11783;50.350;6.576;2024-02-16T00:01:34;6.63;;;2.25;;
23228;SDS011;11783;50.350;6.576;2024-02-16T00:04:01;5.93;;;2.53;;
23228;SDS011;11783;50.350;6.576;2024-02-16T00:06:26;6.85;;;2.38;;
23228;SDS011;11783;50.350;6.576;2024-02-16T00:08:52;7.13;;;2.47;;
23228;SDS011;11783;50.350;6.576;2024-02-16T00:11:17;6.97;;;2.40;;
23228;SDS011;11783;50.350;6.576;2024-02-16T00:13:43;7.10;;;2.35;;
23228;SDS011;11783;50.350;6.576;2024-02-16T00:16:08;9.77;;;2.40;;
23228;SDS011;11783;50.350;6.576;2024-02-16T00:18:34;7.38;;;2.47;;
23228;SDS011;11783;50.350;6.576;2024-02-16T00:21:00;15.35;;;3.50;;
23228;SDS011;11783;50.350;6.576;2024-02-16T00:23:26;6.95;;;2.20;;
23228;SDS011;11783;50.350;6.576;2024-02-16T00:25:52;10.38;;;2.47;;
23228;SDS011;11783;50.350;6.576;2024-02-16T00:28:18;4.47;;;2.45;;
23228;SDS011;11783;50.350;6.576;2024-02-16T00:30:43;13.23;;;2.40;;
23228;SDS011;11783;50.350;6.576;2024-02-16T00:33:09;6.00;;;2.60;;
23228;SDS011;11783;50.350;6.576;2024-02-16T00:35:34;7.95;;;2.63;;
23228;SDS011;11783;50.350;6.576;2024-02-16T00:38:00;11.45;;;2.60;;
23228;SDS011;11783;50.350;6.576;2024-02-16T00:40:25;6.18;;;2.40;;
23228;SDS011;11783;50.350;6.576;2024-02-16T00:42:51;9.80;;;2.80;;
23228;SDS011;11783;50.350;6.576;2024-02-16T00:45:17;7.43;;;2.90;;
23228;SDS011;11783;50.350;6.576;2024-02-16T00:47:42;6.47;;;2.40;;
23228;SDS011;11783;50.350;6.576;2024-02-16T00:50:10;6.97;;;2.60;;
23228;SDS011;11783;50.350;6.576;2024-02-16T00:52:36;6.15;;;2.60;;
23228;SDS011;11783;50.350;6.576;2024-02-16T00:55:02;7.43;;;2.50;;
23228;SDS011;11783;50.350;6.576;2024-02-16T00:57:29;8.45;;;2.83;;
23228;SDS011;11783;50.350;6.576;2024-02-16T00:59:54;6.32;;;2.80;;
23228;SDS011;11783;50.350;6.576;2024-02-16T01:02:20;7.97;;;2.33;;
23228;SDS011;11783;50.350;6.576;2024-02-16T01:04:46;7.65;;;2.60;;
23228;SDS011;11783;50.350;6.576;2024-02-16T01:07:12;10.25;;;2.88;;
23228;SDS011;11783;50.350;6.576;2024-02-16T01:09:37;8.30;;;2.63;;
23228;SDS011;11783;50.350;6.576;2024-02-16T01:12:02;6.15;;;2.75;;
23228;SDS011;11783;50.350;6.576;2024-02-16T01:14:28;7.53;;;2.78;;
23228;SDS011;11783;50.350;6.576;2024-02-16T01:16:53;4.80;;;2.38;;
23228;SDS011;11783;50.350;6.576;2024-02-16T01:19:19;8.75;;;2.80;;
23228;SDS011;11783;50.350;6.576;2024-02-16T01:21:44;6.75;;;2.60;;
23228;SDS011;11783;50.350;6.576;2024-02-16T01:24:12;8.88;;;2.65;;
23228;SDS011;11783;50.350;6.576;2024-02-16T01:26:38;6.18;;;2.65;;
23228;SDS011;11783;50.350;6.576;2024-02-16T01:29:03;7.88;;;2.65;;
23228;SDS011;11783;50.350;6.576;2024-02-16T01:31:29;11.02;;;3.42;;
23228;SDS011;11783;50.350;6.576;2024-02-16T01:33:54;8.70;;;2.42;;
23228;SDS011;11783;50.350;6.576;2024-02-16T01:36:20;7.97;;;2.90;;
23228;SDS011;11783;50.350;6.576;2024-02-16T01:38:45;7.63;;;2.50;;
23228;SDS011;11783;50.350;6.576;2024-02-16T01:41:11;6.20;;;2.83;;
23228;SDS011;11783;50.350;6.576;2024-02-16T01:43:37;7.38;;;2.92;;
23228;SDS011;11783;50.350;6.576;2024-02-16T01:46:03;6.57;;;2.78;;
23228;SDS011;11783;50.350;6.576;2024-02-16T01:48:29;9.23;;;2.97;;
23228;SDS011;11783;50.350;6.576;2024-02-16T01:50:55;7.70;;;2.80;;
23228;SDS011;11783;50.350;6.576;2024-02-16T01:53:21;7.45;;;2.70;;
23228;SDS011;11783;50.350;6.576;2024-02-16T01:55:47;5.25;;;2.63;;
23228;SDS011;11783;50.350;6.576;2024-02-16T01:58:13;7.90;;;2.60;;
23228;SDS011;11783;50.350;6.576;2024-02-16T02:00:39;7.65;;;2.60;;
23228;SDS011;11783;50.350;6.576;2024-02-16T02:03:06;8.65;;;2.78;;
23228;SDS011;11783;50.350;6.576;2024-02-16T02:05:32;6.55;;;2.58;;
23228;SDS011;11783;50.350;6.576;2024-02-16T02:07:57;7.30;;;3.00;;
23228;SDS011;11783;50.350;6.576;2024-02-16T02:10:23;9.35;;;2.97;;
23228;SDS011;11783;50.350;6.576;2024-02-16T02:12:48;6.35;;;2.65;;
23228;SDS011;11783;50.350;6.576;2024-02-16T02:15:14;6.28;;;3.00;;
23228;SDS011;11783;50.350;6.576;2024-02-16T02:17:40;10.05;;;3.33;;
23228;SDS011;11783;50.350;6.576;2024-02-16T02:20:06;7.35;;;2.65;;
23228;SDS011;11783;50.350;6.576;2024-02-16T02:22:35;7.10;;;3.08;;
23228;SDS011;11783;50.350;6.576;2024-02-16T02:25:03;8.77;;;3.72;;
23228;SDS011;11783;50.350;6.576;2024-02-16T02:27:29;8.77;;;3.00;;
23228;SDS011;11783;50.350;6.576;2024-02-16T02:29:54;7.68;;;3.00;;
23228;SDS011;11783;50.350;6.576;2024-02-16T02:32:19;7.53;;;3.40;;
23228;SDS011;11783;50.350;6.576;2024-02-16T02:34:45;8.45;;;3.15;;
23228;SDS011;11783;50.350;6.576;2024-02-16T02:37:10;10.68;;;3.50;;
23228;SDS011;11783;50.350;6.576;2024-02-16T02:39:35;8.60;;;2.85;;
23228;SDS011;11783;50.350;6.576;2024-02-16T02:42:01;8.40;;;2.92;;
23228;SDS011;11783;50.350;6.576;2024-02-16T02:44:26;9.60;;;3.10;;
23228;SDS011;11783;50.350;6.576;2024-02-16T02:46:52;9.05;;;3.63;;
23228;SDS011;11783;50.350;6.576;2024-02-16T02:49:18;8.65;;;3.22;;
23228;SDS011;11783;50.350;6.576;2024-02-16T02:51:43;6.88;;;3.10;;
23228;SDS011;11783;50.350;6.576;2024-02-16T02:54:09;8.80;;;3.38;;
23228;SDS011;11783;50.350;6.576;2024-02-16T02:56:34;8.38;;;3.42;;
23228;SDS011;11783;50.350;6.576;2024-02-16T02:59:00;8.18;;;3.35;;
23228;SDS011;11783;50.350;6.576;2024-02-16T03:01:25;8.65;;;3.38;;
23228;SDS011;11783;50.350;6.576;2024-02-16T03:03:51;9.52;;;3.35;;
23228;SDS011;11783;50.350;6.576;2024-02-16T03:06:19;11.40;;;3.10;;
23228;SDS011;11783;50.350;6.576;2024-02-16T03:08:45;10.65;;;3.35;;
23228;SDS011;11783;50.350;6.576;2024-02-16T03:11:11;6.43;;;3.00;;
23228;SDS011;11783;50.350;6.576;2024-02-16T03:13:36;7.03;;;3.03;;
23228;SDS011;11783;50.350;6.576;2024-02-16T03:16:02;6.40;;;2.72;;
23228;SDS011;11783;50.350;6.576;2024-02-16T03:18:31;7.90;;;3.10;;
23228;SDS011;11783;50.350;6.576;2024-02-16T03:20:58;8.88;;;3.15;;
23228;SDS011;11783;50.350;6.576;2024-02-16T03:23:23;6.90;;;2.95;;
23228;SDS011;11783;50.350;6.576;2024-02-16T03:25:49;5.72;;;3.25;;
23228;SDS011;11783;50.350;6.576;2024-02-16T03:28:14;9.75;;;3.42;;
23228;SDS011;11783;50.350;6.576;2024-02-16T03:30:40;10.70;;;3.50;;
23228;SDS011;11783;50.350;6.576;2024-02-16T03:33:06;8.70;;;3.63;;
23228;SDS011;11783;50.350;6.576;2024-02-16T03:35:31;9.32;;;3.10;;
23228;SDS011;11783;50.350;6.576;2024-02-16T03:37:57;8.20;;;3.60;;
23228;SDS011;11783;50.350;6.576;2024-02-16T03:40:24;6.22;;;3.28;;
23228;SDS011;11783;50.350;6.576;2024-02-16T03:42:50;8.10;;;3.40;;
23228;SDS011;11783;50.350;6.576;2024-02-16T03:45:16;7.75;;;3.20;;
23228;SDS011;11783;50.350;6.576;2024-02-16T03:47:41;9.13;;;3.22;;
23228;SDS011;11783;50.350;6.576;2024-02-16T03:50:07;8.07;;;3.05;;
23228;SDS011;11783;50.350;6.576;2024-02-16T03:52:33;9.23;;;3.42;;
23228;SDS011;11783;50.350;6.576;2024-02-16T03:54:58;6.18;;;2.92;;
23228;SDS011;11783;50.350;6.576;2024-02-16T03:57:24;8.20;;;3.13;;
23228;SDS011;11783;50.350;6.576;2024-02-16T03:59:50;6.90;;;3.00;;
23228;SDS011;11783;50.350;6.576;2024-02-16T04:02:15;7.47;;;3.00;;
23228;SDS011;11783;50.350;6.576;2024-02-16T04:04:41;10.30;;;3.25;;
23228;SDS011;11783;50.350;6.576;2024-02-16T04:07:06;6.47;;;3.15;;
23228;SDS011;11783;50.350;6.576;2024-02-16T04:09:33;6.22;;;2.85;;
23228;SDS011;11783;50.350;6.576;2024-02-16T04:11:59;9.27;;;2.95;;
23228;SDS011;11783;50.350;6.576;2024-02-16T04:14:25;10.52;;;2.92;;
23228;SDS011;11783;50.350;6.576;2024-02-16T04:16:51;8.05;;;2.90;;
23228;SDS011;11783;50.350;6.576;2024-02-16T04:19:16;10.68;;;2.88;;
23228;SDS011;11783;50.350;6.576;2024-02-16T04:21:42;8.82;;;2.88;;
23228;SDS011;11783;50.350;6.576;2024-02-16T04:24:07;6.82;;;2.95;;
23228;SDS011;11783;50.350;6.576;2024-02-16T04:26:33;8.30;;;3.38;;
23228;SDS011;11783;50.350;6.576;2024-02-16T04:28:58;6.75;;;2.88;;
23228;SDS011;11783;50.350;6.576;2024-02-16T04:31:24;8.45;;;3.45;;
23228;SDS011;11783;50.350;6.576;2024-02-16T04:33:49;7.53;;;2.88;;
23228;SDS011;11783;50.350;6.576;2024-02-16T04:36:14;7.72;;;3.38;;
23228;SDS011;11783;50.350;6.576;2024-02-16T04:38:41;7.45;;;2.67;;
23228;SDS011;11783;50.350;6.576;2024-02-16T04:41:06;6.38;;;3.00;;
23228;SDS011;11783;50.350;6.576;2024-02-16T04:43:32;6.65;;;2.83;;
23228;SDS011;11783;50.350;6.576;2024-02-16T04:45:58;9.13;;;3.40;;
23228;SDS011;11783;50.350;6.576;2024-02-16T04:48:24;7.32;;;3.20;;
23228;SDS011;11783;50.350;6.576;2024-02-16T04:50:50;7.97;;;3.35;;
23228;SDS011;11783;50.350;6.576;2024-02-16T04:53:16;8.77;;;3.05;;
23228;SDS011;11783;50.350;6.576;2024-02-16T04:55:42;10.98;;;3.17;;
23228;SDS011;11783;50.350;6.576;2024-02-16T04:58:07;7.53;;;3.20;;
23228;SDS011;11783;50.350;6.576;2024-02-16T05:00:37;9.63;;;3.15;;
23228;SDS011;11783;50.350;6.576;2024-02-16T05:03:03;8.73;;;3.20;;
23228;SDS011;11783;50.350;6.576;2024-02-16T05:05:28;7.05;;;2.97;;
23228;SDS011;11783;50.350;6.576;2024-02-16T05:07:53;10.52;;;3.40;;
23228;SDS011;11783;50.350;6.576;2024-02-16T05:10:19;8.00;;;3.15;;
23228;SDS011;11783;50.350;6.576;2024-02-16T05:12:44;7.95;;;3.20;;
23228;SDS011;11783;50.350;6.576;2024-02-16T05:15:10;8.80;;;3.28;;
23228;SDS011;11783;50.350;6.576;2024-02-16T05:17:38;9.48;;;3.10;;
23228;SDS011;11783;50.350;6.576;2024-02-16T05:20:07;8.10;;;2.90;;
23228;SDS011;11783;50.350;6.576;2024-02-16T05:22:41;7.40;;;2.90;;
23228;SDS011;11783;50.350;6.576;2024-02-16T05:25:08;8.63;;;3.47;;
23228;SDS011;11783;50.350;6.576;2024-02-16T05:27:35;6.90;;;2.95;;
23228;SDS011;11783;50.350;6.576;2024-02-16T05:30:00;9.52;;;2.75;;
23228;SDS011;11783;50.350;6.576;2024-02-16T05:32:25;9.25;;;2.72;;
23228;SDS011;11783;50.350;6.576;2024-02-16T05:34:51;8.30;;;3.00;;
23228;SDS011;11783;50.350;6.576;2024-02-16T05:37:16;9.07;;;3.13;;
23228;SDS011;11783;50.350;6.576;2024-02-16T05:39:43;6.03;;;2.80;;
23228;SDS011;11783;50.350;6.576;2024-02-16T05:42:19;7.30;;;3.45;;
23228;SDS011;11783;50.350;6.576;2024-02-16T05:44:47;9.38;;;3.00;;
23228;SDS011;11783;50.350;6.576;2024-02-16T05:47:13;8.13;;;3.20;;
23228;SDS011;11783;50.350;6.576;2024-02-16T05:49:39;7.28;;;3.00;;
23228;SDS011;11783;50.350;6.576;2024-02-16T05:52:05;7.15;;;2.97;;
23228;SDS011;11783;50.350;6.576;2024-02-16T05:54:43;6.47;;;3.22;;
23228;SDS011;11783;50.350;6.576;2024-02-16T05:57:09;7.80;;;2.50;;
23228;SDS011;11783;50.350;6.576;2024-02-16T05:59:35;10.48;;;2.72;;
23228;SDS011;11783;50.350;6.576;2024-02-16T06:02:00;6.60;;;2.80;;
23228;SDS011;11783;50.350;6.576;2024-02-16T06:04:25;7.43;;;2.97;;
23228;SDS011;11783;50.350;6.576;2024-02-16T06:06:51;6.45;;;2.78;;
23228;SDS011;11783;50.350;6.576;2024-02-16T06:09:18;7.03;;;2.50;;
23228;SDS011;11783;50.350;6.576;2024-02-16T06:11:44;6.90;;;2.80;;
23228;SDS011;11783;50.350;6.576;2024-02-16T06:14:09;9.80;;;2.78;;
23228;SDS011;11783;50.350;6.576;2024-02-16T06:16:35;6.38;;;2.90;;
23228;SDS011;11783;50.350;6.576;2024-02-16T06:19:00;8.48;;;3.58;;
23228;SDS011;11783;50.350;6.576;2024-02-16T06:21:25;5.70;;;2.95;;
23228;SDS011;11783;50.350;6.576;2024-02-16T06:23:51;6.68;;;2.90;;
23228;SDS011;11783;50.350;6.576;2024-02-16T06:26:16;9.20;;;3.10;;
23228;SDS011;11783;50.350;6.576;2024-02-16T06:28:42;6.85;;;2.75;;
23228;SDS011;11783;50.350;6.576;2024-02-16T06:31:07;7.88;;;2.88;;
23228;SDS011;11783;50.350;6.576;2024-02-16T06:33:32;5.72;;;2.67;;
23228;SDS011;11783;50.350;6.576;2024-02-16T06:35:58;7.25;;;3.03;;
23228;SDS011;11783;50.350;6.576;2024-02-16T06:38:23;5.15;;;2.40;;
23228;SDS011;11783;50.350;6.576;2024-02-16T06:40:49;5.68;;;2.60;;
23228;SDS011;11783;50.350;6.576;2024-02-16T06:43:14;7.20;;;2.85;;
23228;SDS011;11783;50.350;6.576;2024-02-16T06:45:39;6.18;;;2.60;;
23228;SDS011;11783;50.350;6.576;2024-02-16T06:48:05;7.43;;;2.70;;
23228;SDS011;11783;50.350;6.576;2024-02-16T06:50:31;8.82;;;3.25;;
23228;SDS011;11783;50.350;6.576;2024-02-16T06:52:56;6.40;;;2.70;;
23228;SDS011;11783;50.350;6.576;2024-02-16T06:55:21;7.35;;;2.78;;
23228;SDS011;11783;50.350;6.576;2024-02-16T06:57:47;4.82;;;2.70;;
23228;SDS011;11783;50.350;6.576;2024-02-16T07:00:13;8.07;;;3.00;;
23228;SDS011;11783;50.350;6.576;2024-02-16T07:02:40;7.05;;;3.08;;
23228;SDS011;11783;50.350;6.576;2024-02-16T07:05:07;6.68;;;2.88;;
23228;SDS011;11783;50.350;6.576;2024-02-16T07:07:33;8.35;;;2.95;;
23228;SDS011;11783;50.350;6.576;2024-02-16T07:10:01;11.32;;;3.55;;
23228;SDS011;11783;50.350;6.576;2024-02-16T07:12:26;6.90;;;3.40;;
23228;SDS011;11783;50.350;6.576;2024-02-16T07:14:52;8.23;;;3.10;;
23228;SDS011;11783;50.350;6.576;2024-02-16T07:17:17;8.55;;;2.90;;
23228;SDS011;11783;50.350;6.576;2024-02-16T07:19:43;8.23;;;3.45;;
23228;SDS011;11783;50.350;6.576;2024-02-16T07:22:08;7.13;;;2.80;;
23228;SDS011;11783;50.350;6.576;2024-02-16T07:24:35;7.60;;;3.17;;
23228;SDS011;11783;50.350;6.576;2024-02-16T07:27:00;8.65;;;2.97;;
23228;SDS011;11783;50.350;6.576;2024-02-16T07:29:26;8.23;;;3.38;;
23228;SDS011;11783;50.350;6.576;2024-02-16T07:31:52;6.30;;;2.90;;
23228;SDS011;11783;50.350;6.576;2024-02-16T07:34:18;9.55;;;2.72;;
23228;SDS011;11783;50.350;6.576;2024-02-16T07:36:44;8.98;;;3.40;;
23228;SDS011;11783;50.350;6.576;2024-02-16T07:39:10;6.45;;;2.65;;
23228;SDS011;11783;50.350;6.576;2024-02-16T07:41:37;7.70;;;3.10;;
23228;SDS011;11783;50.350;6.576;2024-02-16T07:44:03;6.20;;;3.10;;
23228;SDS011;11783;50.350;6.576;2024-02-16T07:46:29;6.57;;;3.10;;
23228;SDS011;11783;50.350;6.576;2024-02-16T07:48:54;7.65;;;2.90;;
23228;SDS011;11783;50.350;6.576;2024-02-16T07:51:20;8.75;;;3.08;;
23228;SDS011;11783;50.350;6.576;2024-02-16T07:53:45;8.40;;;3.10;;
23228;SDS011;11783;50.350;6.576;2024-02-16T07:56:11;7.57;;;3.10;;
23228;SDS011;11783;50.350;6.576;2024-02-16T07:58:37;8.88;;;2.97;;
23228;SDS011;11783;50.350;6.576;2024-02-16T08:01:02;7.18;;;2.75;;
23228;SDS011;11783;50.350;6.576;2024-02-16T08:03:28;9.32;;;3.35;;
23228;SDS011;11783;50.350;6.576;2024-02-16T08:05:54;8.50;;;3.00;;
23228;SDS011;11783;50.350;6.576;2024-02-16T08:08:21;9.63;;;3.10;;
23228;SDS011;11783;50.350;6.576;2024-02-16T08:10:48;9.55;;;2.58;;
23228;SDS011;11783;50.350;6.576;2024-02-16T08:13:13;8.35;;;3.05;;
23228;SDS011;11783;50.350;6.576;2024-02-16T08:15:39;7.90;;;2.80;;
23228;SDS011;11783;50.350;6.576;2024-02-16T08:18:05;7.38;;;2.78;;
23228;SDS011;11783;50.350;6.576;2024-02-16T08:20:30;7.72;;;3.10;;
23228;SDS011;11783;50.350;6.576;2024-02-16T08:22:56;6.95;;;2.97;;
23228;SDS011;11783;50.350;6.576;2024-02-16T08:25:22;13.80;;;2.83;;
23228;SDS011;11783;50.350;6.576;2024-02-16T08:27:48;6.35;;;3.10;;
23228;SDS011;11783;50.350;6.576;2024-02-16T08:30:14;5.78;;;2.70;;
23228;SDS011;11783;50.350;6.576;2024-02-16T08:32:40;6.78;;;2.75;;
23228;SDS011;11783;50.350;6.576;2024-02-16T08:35:05;6.15;;;2.70;;
23228;SDS011;11783;50.350;6.576;2024-02-16T08:37:31;5.75;;;2.90;;
23228;SDS011;11783;50.350;6.576;2024-02-16T08:39:57;6.05;;;2.53;;
23228;SDS011;11783;50.350;6.576;2024-02-16T08:42:22;8.25;;;2.95;;
23228;SDS011;11783;50.350;6.576;2024-02-16T08:44:48;7.28;;;2.75;;
23228;SDS011;11783;50.350;6.576;2024-02-16T08:47:15;6.72;;;2.80;;
23228;SDS011;11783;50.350;6.576;2024-02-16T08:49:41;5.25;;;3.15;;
23228;SDS011;11783;50.350;6.576;2024-02-16T08:52:07;9.05;;;3.20;;
23228;SDS011;11783;50.350;6.576;2024-02-16T08:54:33;8.10;;;2.97;;
23228;SDS011;11783;50.350;6.576;2024-02-16T08:56:59;7.65;;;3.00;;
23228;SDS011;11783;50.350;6.576;2024-02-16T08:59:24;7.72;;;2.80;;
23228;SDS011;11783;50.350;6.576;2024-02-16T09:01:50;7.57;;;3.15;;
23228;SDS011;11783;50.350;6.576;2024-02-16T09:04:17;9.77;;;3.30;;
23228;SDS011;11783;50.350;6.576;2024-02-16T09:06:43;7.90;;;3.20;;
23228;SDS011;11783;50.350;6.576;2024-02-16T09:09:08;6.07;;;3.00;;
23228;SDS011;11783;50.350;6.576;2024-02-16T09:11:34;12.55;;;3.22;;
23228;SDS011;11783;50.350;6.576;2024-02-16T09:13:59;5.68;;;2.83;;
23228;SDS011;11783;50.350;6.576;2024-02-16T09:16:26;7.38;;;3.05;;
23228;SDS011;11783;50.350;6.576;2024-02-16T09:18:52;7.18;;;3.05;;
23228;SDS011;11783;50.350;6.576;2024-02-16T09:21:17;8.43;;;3.08;;
23228;SDS011;11783;50.350;6.576;2024-02-16T09:23:43;10.38;;;3.55;;
23228;SDS011;11783;50.350;6.576;2024-02-16T09:26:08;8.05;;;3.35;;
23228;SDS011;11783;50.350;6.576;2024-02-16T09:28:39;8.18;;;3.38;;
23228;SDS011;11783;50.350;6.576;2024-02-16T09:31:08;7.60;;;3.40;;
23228;SDS011;11783;50.350;6.576;2024-02-16T09:33:34;7.68;;;2.90;;
23228;SDS011;11783;50.350;6.576;2024-02-16T09:36:00;5.28;;;2.90;;
23228;SDS011;11783;50.350;6.576;2024-02-16T09:38:27;8.02;;;3.42;;
23228;SDS011;11783;50.350;6.576;2024-02-16T09:40:53;6.95;;;3.22;;
23228;SDS011;11783;50.350;6.576;2024-02-16T09:43:25;9.32;;;3.35;;
23228;SDS011;11783;50.350;6.576;2024-02-16T09:45:52;8.95;;;3.10;;
23228;SDS011;11783;50.350;6.576;2024-02-16T09:48:22;8.30;;;3.20;;
23228;SDS011;11783;50.350;6.576;2024-02-16T09:50:51;9.65;;;3.05;;
23228;SDS011;11783;50.350;6.576;2024-02-16T09:53:19;5.68;;;2.90;;
23228;SDS011;11783;50.350;6.576;2024-02-16T09:55:47;7.10;;;3.20;;
23228;SDS011;11783;50.350;6.576;2024-02-16T09:58:14;8.32;;;3.40;;
23228;SDS011;11783;50.350;6.576;2024-02-16T10:00:47;7.88;;;3.17;;
23228;SDS011;11783;50.350;6.576;2024-02-16T10:05:49;11.23;;;3.38;;
23228;SDS011;11783;50.350;6.576;2024-02-16T10:08:16;8.02;;;3.20;;
23228;SDS011;11783;50.350;6.576;2024-02-16T10:10:42;8.00;;;3.45;;
23228;SDS011;11783;50.350;6.576;2024-02-16T10:13:08;10.77;;;3.03;;
23228;SDS011;11783;50.350;6.576;2024-02-16T10:15:34;11.27;;;3.30;;
23228;SDS011;11783;50.350;6.576;2024-02-16T10:18:03;6.55;;;3.42;;
23228;SDS011;11783;50.350;6.576;2024-02-16T10:20:30;7.78;;;3.00;;
23228;SDS011;11783;50.350;6.576;2024-02-16T10:25:30;6.70;;;3.28;;
23228;SDS011;11783;50.350;6.576;2024-02-16T10:27:55;7.40;;;2.97;;
23228;SDS011;11783;50.350;6.576;2024-02-16T10:30:23;7.95;;;3.65;;
23228;SDS011;11783;50.350;6.576;2024-02-16T10:32:54;10.25;;;3.05;;
23228;SDS011;11783;50.350;6.576;2024-02-16T10:35:20;8.88;;;3.53;;
23228;SDS011;11783;50.350;6.576;2024-02-16T10:37:47;10.68;;;3.83;;
23228;SDS011;11783;50.350;6.576;2024-02-16T10:40:13;8.20;;;3.53;;
23228;SDS011;11783;50.350;6.576;2024-02-16T10:42:39;8.32;;;3.45;;
23228;SDS011;11783;50.350;6.576;2024-02-16T10:45:07;9.43;;;3.47;;
23228;SDS011;11783;50.350;6.576;2024-02-16T10:47:33;6.35;;;3.45;;
23228;SDS011;11783;50.350;6.576;2024-02-16T10:49:58;9.80;;;3.88;;
23228;SDS011;11783;50.350;6.576;2024-02-16T10:52:25;7.88;;;3.75;;
23228;SDS011;11783;50.350;6.576;2024-02-16T10:54:51;7.13;;;3.17;;
23228;SDS011;11783;50.350;6.576;2024-02-16T10:57:16;12.23;;;3.75;;
23228;SDS011;11783;50.350;6.576;2024-02-16T10:59:43;10.90;;;4.32;;
23228;SDS011;11783;50.350;6.576;2024-02-16T11:02:10;8.15;;;3.80;;
23228;SDS011;11783;50.350;6.576;2024-02-16T11:04:36;10.15;;;3.67;;
23228;SDS011;11783;50.350;6.576;2024-02-16T11:07:18;10.70;;;3.92;;
23228;SDS011;11783;50.350;6.576;2024-02-16T11:09:44;11.75;;;4.25;;
23228;SDS011;11783;50.350;6.576;2024-02-16T11:12:12;9.82;;;3.70;;
23228;SDS011;11783;50.350;6.576;2024-02-16T11:14:40;7.68;;;3.60;;
23228;SDS011;11783;50.350;6.576;2024-02-16T11:17:11;8.90;;;3.63;;
23228;SDS011;11783;50.350;6.576;2024-02-16T11:19:39;10.23;;;4.20;;
23228;SDS011;11783;50.350;6.576;2024-02-16T11:22:06;9.55;;;3.85;;
23228;SDS011;11783;50.350;6.576;2024-02-16T11:24:36;7.45;;;3.90;;
23228;SDS011;11783;50.350;6.576;2024-02-16T11:27:02;8.00;;;3.92;;
23228;SDS011;11783;50.350;6.576;2024-02-16T11:29:31;9.18;;;3.25;;
23228;SDS011;11783;50.350;6.576;2024-02-16T11:31:58;10.73;;;3.65;;
23228;SDS011;11783;50.350;6.576;2024-02-16T11:34:26;8.20;;;3.33;;
23228;SDS011;11783;50.350;6.576;2024-02-16T11:36:55;10.48;;;3.85;;
23228;SDS011;11783;50.350;6.576;2024-02-16T11:39:21;10.50;;;3.90;;
23228;SDS011;11783;50.350;6.576;2024-02-16T11:41:47;7.38;;;4.55;;
23228;SDS011;11783;50.350;6.576;2024-02-16T11:44:13;9.48;;;4.05;;
23228;SDS011;11783;50.350;6.576;2024-02-16T11:46:41;7.85;;;4.13;;
23228;SDS011;11783;50.350;6.576;2024-02-16T11:49:07;9.02;;;3.60;;
23228;SDS011;11783;50.350;6.576;2024-02-16T11:51:33;8.35;;;3.95;;
23228;SDS011;11783;50.350;6.576;2024-02-16T11:53:59;11.30;;;4.35;;
23228;SDS011;11783;50.350;6.576;2024-02-16T11:56:25;8.63;;;3.90;;
23228;SDS011;11783;50.350;6.576;2024-02-16T11:58:51;11.30;;;4.78;;
23228;SDS011;11783;50.350;6.576;2024-02-16T12:01:17;8.05;;;3.70;;
23228;SDS011;11783;50.350;6.576;2024-02-16T12:03:43;11.50;;;4.10;;
23228;SDS011;11783;50.350;6.576;2024-02-16T12:06:08;10.13;;;3.80;;
23228;SDS011;11783;50.350;6.576;2024-02-16T12:08:34;10.25;;;4.25;;
23228;SDS011;11783;50.350;6.576;2024-02-16T12:11:00;9.75;;;3.95;;
23228;SDS011;11783;50.350;6.576;2024-02-16T12:13:27;11.32;;;4.18;;
23228;SDS011;11783;50.350;6.576;2024-02-16T12:15:53;9.77;;;3.95;;
23228;SDS011;11783;50.350;6.576;2024-02-16T12:18:24;8.95;;;4.13;;
23228;SDS011;11783;50.350;6.576;2024-02-16T12:21:00;9.02;;;4.32;;
23228;SDS011;11783;50.350;6.576;2024-02-16T12:23:26;7.50;;;3.70;;
23228;SDS011;11783;50.350;6.576;2024-02-16T12:25:52;9.52;;;4.43;;
23228;SDS011;11783;50.350;6.576;2024-02-16T12:28:18;9.68;;;4.63;;
23228;SDS011;11783;50.350;6.576;2024-02-16T12:30:45;8.48;;;4.20;;
23228;SDS011;11783;50.350;6.576;2024-02-16T12:33:13;11.43;;;4.70;;
23228;SDS011;11783;50.350;6.576;2024-02-16T12:35:38;13.02;;;4.60;;
23228;SDS011;11783;50.350;6.576;2024-02-16T12:38:04;9.93;;;4.70;;
23228;SDS011;11783;50.350;6.576;2024-02-16T12:40:29;10.98;;;4.40;;
23228;SDS011;11783;50.350;6.576;2024-02-16T12:42:54;12.77;;;5.13;;
23228;SDS011;11783;50.350;6.576;2024-02-16T12:45:20;8.35;;;4.47;;
23228;SDS011;11783;50.350;6.576;2024-02-16T12:47:45;11.23;;;4.97;;
23228;SDS011;11783;50.350;6.576;2024-02-16T12:50:12;11.07;;;5.10;;
23228;SDS011;11783;50.350;6.576;2024-02-16T12:52:37;11.43;;;4.60;;
23228;SDS011;11783;50.350;6.576;2024-02-16T12:55:04;11.25;;;4.88;;
23228;SDS011;11783;50.350;6.576;2024-02-16T12:57:31;13.55;;;4.32;;
23228;SDS011;11783;50.350;6.576;2024-02-16T12:59:56;11.07;;;4.82;;
23228;SDS011;11783;50.350;6.576;2024-02-16T13:02:22;10.50;;;4.68;;
23228;SDS011;11783;50.350;6.576;2024-02-16T13:04:47;6.78;;;4.18;;
23228;SDS011;11783;50.350;6.576;2024-02-16T13:07:13;10.55;;;4.50;;
23228;SDS011;11783;50.350;6.576;2024-02-16T13:09:38;10.60;;;4.60;;
23228;SDS011;11783;50.350;6.576;2024-02-16T13:12:04;10.98;;;4.63;;
23228;SDS011;11783;50.350;6.576;2024-02-16T13:14:30;13.68;;;5.15;;
23228;SDS011;11783;50.350;6.576;2024-02-16T13:16:55;9.98;;;4.75;;
23228;SDS011;11783;50.350;6.576;2024-02-16T13:19:21;12.93;;;5.20;;
23228;SDS011;11783;50.350;6.576;2024-02-16T13:21:46;11.15;;;5.15;;
23228;SDS011;11783;50.350;6.576;2024-02-16T13:24:11;13.85;;;5.13;;
23228;SDS011;11783;50.350;6.576;2024-02-16T13:26:37;9.02;;;4.60;;
23228;SDS011;11783;50.350;6.576;2024-02-16T13:29:02;8.40;;;4.82;;
23228;SDS011;11783;50.350;6.576;2024-02-16T13:31:28;9.88;;;4.82;;
23228;SDS011;11783;50.350;6.576;2024-02-16T13:33:54;10.68;;;4.75;;
23228;SDS011;11783;50.350;6.576;2024-02-16T13:36:20;10.85;;;5.28;;
23228;SDS011;11783;50.350;6.576;2024-02-16T13:38:45;14.02;;;4.63;;
23228;SDS011;11783;50.350;6.576;2024-02-16T13:41:11;9.82;;;5.30;;
23228;SDS011;11783;50.350;6.576;2024-02-16T13:43:36;12.40;;;5.75;;
23228;SDS011;11783;50.350;6.576;2024-02-16T13:46:02;9.93;;;5.53;;
23228;SDS011;11783;50.350;6.576;2024-02-16T13:48:28;11.93;;;5.75;;
23228;SDS011;11783;50.350;6.576;2024-02-16T13:50:55;11.00;;;5.50;;
23228;SDS011;11783;50.350;6.576;2024-02-16T13:53:20;11.30;;;5.13;;
23228;SDS011;11783;50.350;6.576;2024-02-16T13:55:48;12.27;;;4.95;;
23228;SDS011;11783;50.350;6.576;2024-02-16T13:58:14;13.15;;;5.45;;
23228;SDS011;11783;50.350;6.576;2024-02-16T14:00:39;9.30;;;5.20;;
23228;SDS011;11783;50.350;6.576;2024-02-16T14:03:05;11.48;;;5.35;;
23228;SDS011;11783;50.350;6.576;2024-02-16T14:05:34;9.07;;;4.78;;
23228;SDS011;11783;50.350;6.576;2024-02-16T14:08:03;11.05;;;4.85;;
23228;SDS011;11783;50.350;6.576;2024-02-16T14:10:30;7.85;;;4.50;;
23228;SDS011;11783;50.350;6.576;2024-02-16T14:12:57;8.63;;;4.30;;
23228;SDS011;11783;50.350;6.576;2024-02-16T14:15:22;8.00;;;4.10;;
23228;SDS011;11783;50.350;6.576;2024-02-16T14:17:48;8.63;;;4.18;;
23228;SDS011;11783;50.350;6.576;2024-02-16T14:20:13;9.77;;;4.30;;
23228;SDS011;11783;50.350;6.576;2024-02-16T14:22:39;6.18;;;3.92;;
23228;SDS011;11783;50.350;6.576;2024-02-16T14:25:04;7.47;;;3.78;;
23228;SDS011;11783;50.350;6.576;2024-02-16T14:27:30;8.98;;;3.95;;
23228;SDS011;11783;50.350;6.576;2024-02-16T14:29:55;6.78;;;3.60;;
23228;SDS011;11783;50.350;6.576;2024-02-16T14:32:21;5.55;;;3.70;;
23228;SDS011;11783;50.350;6.576;2024-02-16T14:34:47;6.07;;;3.28;;
23228;SDS011;11783;50.350;6.576;2024-02-16T14:37:12;8.82;;;3.70;;
23228;SDS011;11783;50.350;6.576;2024-02-16T14:39:37;6.55;;;3.17;;
23228;SDS011;11783;50.350;6.576;2024-02-16T14:42:03;6.82;;;3.05;;
23228;SDS011;11783;50.350;6.576;2024-02-16T14:44:29;7.05;;;2.97;;